sensor_id;sensor_type;location;lat;lon;timestamp;P1;durP1;ratioP1;P2;durP2;ratioP2
64031;SDS011;50278;47.796;11.968;2023-02-15T00:01:28;116.35;;;16.55;;
64031;SDS011;50278;47.796;11.968;2023-02-15T00:03:54;80.05;;;13.75;;
64031;SDS011;50278;47.796;11.968;2023-02-15T00:06:19;156.50;;;19.77;;
64031;SDS011;50278;47.796;11.968;2023-02-15T00:08:45;97.72;;;17.15;;
64031;SDS011;50278;47.796;11.968;2023-02-15T00:11:12;156.68;;;18.92;;
64031;SDS011;50278;47.796;11.968;2023-02-15T00:13:39;160.82;;;18.50;;
64031;SDS011;50278;47.796;11.968;2023-02-15T00:16:09;64.53;;;13.00;;
64031;SDS011;50278;47.796;11.968;2023-02-15T00:18:36;44.88;;;12.52;;
64031;SDS011;50278;47.796;11.968;2023-02-15T00:21:04;61.25;;;13.45;;
64031;SDS011;50278;47.796;11.968;2023-02-15T00:23:31;64.15;;;12.75;;
64031;SDS011;50278;47.796;11.968;2023-02-15T00:26:07;105.43;;;15.52;;
64031;SDS011;50278;47.796;11.968;2023-02-15T00:28:35;58.95;;;12.73;;
64031;SDS011;50278;47.796;11.968;2023-02-15T00:31:10;25.45;;;9.10;;
64031;SDS011;50278;47.796;11.968;2023-02-15T00:33:37;86.57;;;14.98;;
64031;SDS011;50278;47.796;11.968;2023-02-15T00:36:05;28.90;;;10.13;;
64031;SDS011;50278;47.796;11.968;2023-02-15T00:38:32;40.20;;;9.68;;
64031;SDS011;50278;47.796;11.968;2023-02-15T00:41:00;42.97;;;10.50;;
64031;SDS011;50278;47.796;11.968;2023-02-15T00:43:27;54.42;;;10.93;;
64031;SDS011;50278;47.796;11.968;2023-02-15T00:45:55;66.53;;;12.15;;
64031;SDS011;50278;47.796;11.968;2023-02-15T00:48:21;33.97;;;9.70;;
64031;SDS011;50278;47.796;11.968;2023-02-15T00:50:48;104.57;;;14.85;;
64031;SDS011;50278;47.796;11.968;2023-02-15T00:53:15;156.85;;;19.05;;
64031;SDS011;50278;47.796;11.968;2023-02-15T00:55:41;80.18;;;14.20;;
64031;SDS011;50278;47.796;11.968;2023-02-15T00:58:07;197.45;;;21.10;;
64031;SDS011;50278;47.796;11.968;2023-02-15T01:00:33;125.85;;;17.23;;
64031;SDS011;50278;47.796;11.968;2023-02-15T01:02:59;81.40;;;12.13;;
64031;SDS011;50278;47.796;11.968;2023-02-15T01:05:25;62.90;;;11.85;;
64031;SDS011;50278;47.796;11.968;2023-02-15T01:07:50;125.80;;;16.85;;
64031;SDS011;50278;47.796;11.968;2023-02-15T01:10:16;19.38;;;9.10;;
64031;SDS011;50278;47.796;11.968;2023-02-15T01:12:41;86.95;;;13.68;;
64031;SDS011;50278;47.796;11.968;2023-02-15T01:15:07;51.90;;;11.00;;
64031;SDS011;50278;47.796;11.968;2023-02-15T01:17:33;57.88;;;11.57;;
64031;SDS011;50278;47.796;11.968;2023-02-15T01:19:59;146.52;;;18.85;;
64031;SDS011;50278;47.796;11.968;2023-02-15T01:22:24;115.75;;;17.02;;
64031;SDS011;50278;47.796;11.968;2023-02-15T01:24:50;85.68;;;14.13;;
64031;SDS011;50278;47.796;11.968;2023-02-15T01:27:16;163.07;;;18.65;;
64031;SDS011;50278;47.796;11.968;2023-02-15T01:29:42;88.95;;;14.60;;
64031;SDS011;50278;47.796;11.968;2023-02-15T01:32:08;159.13;;;19.00;;
64031;SDS011;50278;47.796;11.968;2023-02-15T01:34:33;197.73;;;21.33;;
64031;SDS011;50278;47.796;11.968;2023-02-15T01:36:59;91.13;;;13.65;;
64031;SDS011;50278;47.796;11.968;2023-02-15T01:39:25;164.07;;;18.05;;
64031;SDS011;50278;47.796;11.968;2023-02-15T01:41:50;59.85;;;12.25;;
64031;SDS011;50278;47.796;11.968;2023-02-15T01:47:07;88.05;;;15.35;;
64031;SDS011;50278;47.796;11.968;2023-02-15T01:49:36;33.13;;;10.40;;
64031;SDS011;50278;47.796;11.968;2023-02-15T01:52:06;25.98;;;10.15;;
64031;SDS011;50278;47.796;11.968;2023-02-15T01:54:33;130.40;;;17.42;;
64031;SDS011;50278;47.796;11.968;2023-02-15T01:57:04;115.20;;;15.40;;
64031;SDS011;50278;47.796;11.968;2023-02-15T01:59:32;29.33;;;11.25;;
64031;SDS011;50278;47.796;11.968;2023-02-15T02:02:00;99.68;;;13.05;;
64031;SDS011;50278;47.796;11.968;2023-02-15T02:06:58;79.28;;;12.32;;
64031;SDS011;50278;47.796;11.968;2023-02-15T02:09:25;56.72;;;11.30;;
64031;SDS011;50278;47.796;11.968;2023-02-15T02:11:50;38.95;;;10.40;;
64031;SDS011;50278;47.796;11.968;2023-02-15T02:14:16;49.45;;;10.00;;
64031;SDS011;50278;47.796;11.968;2023-02-15T02:44:15;16.80;;;7.97;;
64031;SDS011;50278;47.796;11.968;2023-02-15T02:49:41;28.38;;;7.82;;
64031;SDS011;50278;47.796;11.968;2023-02-15T02:55:30;35.38;;;8.55;;
64031;SDS011;50278;47.796;11.968;2023-02-15T03:00:38;46.05;;;9.27;;
64031;SDS011;50278;47.796;11.968;2023-02-15T03:03:09;46.22;;;9.50;;
64031;SDS011;50278;47.796;11.968;2023-02-15T03:05:45;19.77;;;7.20;;
64031;SDS011;50278;47.796;11.968;2023-02-15T03:08:15;12.10;;;6.85;;
64031;SDS011;50278;47.796;11.968;2023-02-15T03:10:48;24.83;;;8.23;;
64031;SDS011;50278;47.796;11.968;2023-02-15T03:13:18;11.87;;;7.70;;
64031;SDS011;50278;47.796;11.968;2023-02-15T03:15:46;22.95;;;8.48;;
64031;SDS011;50278;47.796;11.968;2023-02-15T03:18:34;18.95;;;8.18;;
64031;SDS011;50278;47.796;11.968;2023-02-15T03:21:03;25.63;;;8.45;;
64031;SDS011;50278;47.796;11.968;2023-02-15T03:23:31;11.70;;;6.75;;
64031;SDS011;50278;47.796;11.968;2023-02-15T03:26:03;20.80;;;6.82;;
64031;SDS011;50278;47.796;11.968;2023-02-15T03:28:38;10.38;;;6.10;;
64031;SDS011;50278;47.796;11.968;2023-02-15T03:31:09;17.17;;;6.82;;
64031;SDS011;50278;47.796;11.968;2023-02-15T03:33:40;92.47;;;12.30;;
64031;SDS011;50278;47.796;11.968;2023-02-15T03:36:22;30.80;;;7.38;;
64031;SDS011;50278;47.796;11.968;2023-02-15T03:41:58;51.38;;;8.70;;
64031;SDS011;50278;47.796;11.968;2023-02-15T03:44:30;84.25;;;10.73;;
64031;SDS011;50278;47.796;11.968;2023-02-15T03:47:03;27.95;;;7.85;;
64031;SDS011;50278;47.796;11.968;2023-02-15T03:52:20;33.78;;;7.65;;
64031;SDS011;50278;47.796;11.968;2023-02-15T03:54:48;38.80;;;8.90;;
64031;SDS011;50278;47.796;11.968;2023-02-15T03:57:19;57.00;;;9.68;;
64031;SDS011;50278;47.796;11.968;2023-02-15T04:03:09;38.33;;;9.20;;
64031;SDS011;50278;47.796;11.968;2023-02-15T04:05:51;17.08;;;8.30;;
64031;SDS011;50278;47.796;11.968;2023-02-15T04:08:17;16.98;;;9.07;;
64031;SDS011;50278;47.796;11.968;2023-02-15T04:10:42;14.60;;;8.65;;
64031;SDS011;50278;47.796;11.968;2023-02-15T04:13:17;70.10;;;13.52;;
64031;SDS011;50278;47.796;11.968;2023-02-15T04:15:48;55.38;;;12.60;;
64031;SDS011;50278;47.796;11.968;2023-02-15T04:18:39;65.00;;;12.82;;
64031;SDS011;50278;47.796;11.968;2023-02-15T04:21:24;82.55;;;15.35;;
64031;SDS011;50278;47.796;11.968;2023-02-15T04:24:10;32.10;;;10.30;;
64031;SDS011;50278;47.796;11.968;2023-02-15T04:26:55;61.45;;;13.18;;
64031;SDS011;50278;47.796;11.968;2023-02-15T04:29:21;61.05;;;12.63;;
64031;SDS011;50278;47.796;11.968;2023-02-15T04:31:48;35.25;;;10.63;;
64031;SDS011;50278;47.796;11.968;2023-02-15T04:34:15;50.75;;;11.90;;
64031;SDS011;50278;47.796;11.968;2023-02-15T04:36:41;23.48;;;9.70;;
64031;SDS011;50278;47.796;11.968;2023-02-15T04:39:07;32.28;;;10.20;;
64031;SDS011;50278;47.796;11.968;2023-02-15T04:41:33;22.15;;;8.95;;
64031;SDS011;50278;47.796;11.968;2023-02-15T04:43:59;33.30;;;9.73;;
64031;SDS011;50278;47.796;11.968;2023-02-15T04:46:25;42.65;;;10.00;;
64031;SDS011;50278;47.796;11.968;2023-02-15T04:48:52;17.65;;;7.97;;
64031;SDS011;50278;47.796;11.968;2023-02-15T04:51:18;22.17;;;8.70;;
64031;SDS011;50278;47.796;11.968;2023-02-15T04:53:44;11.60;;;7.63;;
64031;SDS011;50278;47.796;11.968;2023-02-15T04:56:09;12.68;;;6.88;;
64031;SDS011;50278;47.796;11.968;2023-02-15T04:58:35;8.45;;;5.90;;
64031;SDS011;50278;47.796;11.968;2023-02-15T05:01:02;8.20;;;6.20;;
64031;SDS011;50278;47.796;11.968;2023-02-15T05:03:27;10.05;;;6.50;;
64031;SDS011;50278;47.796;11.968;2023-02-15T05:05:53;31.85;;;7.75;;
64031;SDS011;50278;47.796;11.968;2023-02-15T05:08:19;14.18;;;7.05;;
64031;SDS011;50278;47.796;11.968;2023-02-15T05:10:44;9.43;;;5.90;;
64031;SDS011;50278;47.796;11.968;2023-02-15T05:13:13;11.48;;;6.45;;
64031;SDS011;50278;47.796;11.968;2023-02-15T05:15:39;10.35;;;6.45;;
64031;SDS011;50278;47.796;11.968;2023-02-15T05:18:04;15.02;;;7.03;;
64031;SDS011;50278;47.796;11.968;2023-02-15T05:20:31;12.68;;;6.45;;
64031;SDS011;50278;47.796;11.968;2023-02-15T05:22:57;22.23;;;8.70;;
64031;SDS011;50278;47.796;11.968;2023-02-15T05:25:22;15.68;;;7.28;;
64031;SDS011;50278;47.796;11.968;2023-02-15T05:28:08;12.38;;;7.15;;
64031;SDS011;50278;47.796;11.968;2023-02-15T05:30:44;24.25;;;8.48;;
64031;SDS011;50278;47.796;11.968;2023-02-15T05:33:10;56.28;;;11.20;;
64031;SDS011;50278;47.796;11.968;2023-02-15T05:35:35;24.20;;;9.40;;
64031;SDS011;50278;47.796;11.968;2023-02-15T05:38:01;33.72;;;9.10;;
64031;SDS011;50278;47.796;11.968;2023-02-15T05:40:26;16.90;;;8.43;;
64031;SDS011;50278;47.796;11.968;2023-02-15T05:42:52;41.40;;;10.43;;
64031;SDS011;50278;47.796;11.968;2023-02-15T05:45:17;188.05;;;20.42;;
64031;SDS011;50278;47.796;11.968;2023-02-15T05:47:43;145.43;;;16.67;;
64031;SDS011;50278;47.796;11.968;2023-02-15T05:50:09;69.10;;;13.43;;
64031;SDS011;50278;47.796;11.968;2023-02-15T05:52:36;45.95;;;10.63;;
64031;SDS011;50278;47.796;11.968;2023-02-15T05:55:02;104.90;;;14.50;;
64031;SDS011;50278;47.796;11.968;2023-02-15T05:57:29;59.28;;;12.50;;
64031;SDS011;50278;47.796;11.968;2023-02-15T05:59:55;100.45;;;14.98;;
64031;SDS011;50278;47.796;11.968;2023-02-15T06:02:20;212.63;;;22.35;;
64031;SDS011;50278;47.796;11.968;2023-02-15T06:04:46;45.80;;;11.10;;
64031;SDS011;50278;47.796;11.968;2023-02-15T06:07:11;122.32;;;15.73;;
64031;SDS011;50278;47.796;11.968;2023-02-15T06:09:37;109.40;;;16.77;;
64031;SDS011;50278;47.796;11.968;2023-02-15T06:12:02;94.40;;;14.50;;
64031;SDS011;50278;47.796;11.968;2023-02-15T06:14:28;288.30;;;28.73;;
64031;SDS011;50278;47.796;11.968;2023-02-15T06:16:54;107.03;;;15.00;;
64031;SDS011;50278;47.796;11.968;2023-02-15T06:19:19;82.28;;;14.02;;
64031;SDS011;50278;47.796;11.968;2023-02-15T06:21:46;117.32;;;14.65;;
64031;SDS011;50278;47.796;11.968;2023-02-15T06:24:11;60.17;;;11.40;;
64031;SDS011;50278;47.796;11.968;2023-02-15T06:26:37;113.55;;;13.95;;
64031;SDS011;50278;47.796;11.968;2023-02-15T06:29:03;64.00;;;11.43;;
64031;SDS011;50278;47.796;11.968;2023-02-15T06:31:28;47.83;;;9.95;;
64031;SDS011;50278;47.796;11.968;2023-02-15T06:33:54;65.00;;;11.07;;
64031;SDS011;50278;47.796;11.968;2023-02-15T06:36:26;75.10;;;11.38;;
64031;SDS011;50278;47.796;11.968;2023-02-15T06:38:53;28.88;;;9.23;;
64031;SDS011;50278;47.796;11.968;2023-02-15T06:41:19;129.27;;;12.80;;
64031;SDS011;50278;47.796;11.968;2023-02-15T06:43:45;13.70;;;6.78;;
64031;SDS011;50278;47.796;11.968;2023-02-15T06:46:10;64.68;;;10.55;;
64031;SDS011;50278;47.796;11.968;2023-02-15T06:48:36;55.42;;;10.35;;
64031;SDS011;50278;47.796;11.968;2023-02-15T06:51:01;39.22;;;9.55;;
64031;SDS011;50278;47.796;11.968;2023-02-15T06:53:27;51.15;;;10.30;;
64031;SDS011;50278;47.796;11.968;2023-02-15T06:55:52;60.90;;;11.13;;
64031;SDS011;50278;47.796;11.968;2023-02-15T06:58:18;50.22;;;9.15;;
64031;SDS011;50278;47.796;11.968;2023-02-15T07:00:43;61.95;;;10.30;;
64031;SDS011;50278;47.796;11.968;2023-02-15T07:03:09;36.03;;;8.15;;
64031;SDS011;50278;47.796;11.968;2023-02-15T07:05:34;68.35;;;11.60;;
64031;SDS011;50278;47.796;11.968;2023-02-15T07:08:00;69.95;;;10.57;;
64031;SDS011;50278;47.796;11.968;2023-02-15T07:10:26;57.58;;;10.50;;
64031;SDS011;50278;47.796;11.968;2023-02-15T07:12:52;33.20;;;9.63;;
64031;SDS011;50278;47.796;11.968;2023-02-15T07:15:18;88.97;;;13.60;;
64031;SDS011;50278;47.796;11.968;2023-02-15T07:17:46;127.63;;;15.85;;
64031;SDS011;50278;47.796;11.968;2023-02-15T07:20:16;98.70;;;13.52;;
64031;SDS011;50278;47.796;11.968;2023-02-15T07:22:43;130.20;;;16.13;;
64031;SDS011;50278;47.796;11.968;2023-02-15T07:25:09;141.15;;;16.00;;
64031;SDS011;50278;47.796;11.968;2023-02-15T07:27:36;118.13;;;15.77;;
64031;SDS011;50278;47.796;11.968;2023-02-15T07:30:01;99.40;;;14.40;;
64031;SDS011;50278;47.796;11.968;2023-02-15T07:32:28;158.98;;;17.45;;
64031;SDS011;50278;47.796;11.968;2023-02-15T07:34:55;118.43;;;17.17;;
64031;SDS011;50278;47.796;11.968;2023-02-15T07:37:20;36.30;;;10.30;;
64031;SDS011;50278;47.796;11.968;2023-02-15T07:39:46;62.15;;;11.60;;
64031;SDS011;50278;47.796;11.968;2023-02-15T07:42:11;127.53;;;15.85;;
64031;SDS011;50278;47.796;11.968;2023-02-15T07:44:37;159.32;;;16.58;;
64031;SDS011;50278;47.796;11.968;2023-02-15T07:47:02;102.82;;;13.57;;
64031;SDS011;50278;47.796;11.968;2023-02-15T07:49:28;151.32;;;15.93;;
64031;SDS011;50278;47.796;11.968;2023-02-15T07:51:53;58.25;;;9.73;;
64031;SDS011;50278;47.796;11.968;2023-02-15T07:54:19;36.35;;;9.68;;
64031;SDS011;50278;47.796;11.968;2023-02-15T07:56:45;17.02;;;8.02;;
64031;SDS011;50278;47.796;11.968;2023-02-15T07:59:10;17.80;;;7.28;;
64031;SDS011;50278;47.796;11.968;2023-02-15T08:01:36;17.58;;;6.68;;
64031;SDS011;50278;47.796;11.968;2023-02-15T08:04:04;26.10;;;7.43;;
64031;SDS011;50278;47.796;11.968;2023-02-15T08:06:31;16.60;;;8.32;;
64031;SDS011;50278;47.796;11.968;2023-02-15T08:09:00;17.35;;;7.57;;
64031;SDS011;50278;47.796;11.968;2023-02-15T08:11:29;16.05;;;7.53;;
64031;SDS011;50278;47.796;11.968;2023-02-15T08:19:00;16.55;;;7.32;;
64031;SDS011;50278;47.796;11.968;2023-02-15T08:21:28;27.98;;;8.57;;
64031;SDS011;50278;47.796;11.968;2023-02-15T08:23:55;16.95;;;7.25;;
64031;SDS011;50278;47.796;11.968;2023-02-15T08:26:21;21.35;;;7.05;;
64031;SDS011;50278;47.796;11.968;2023-02-15T08:28:47;35.83;;;9.35;;
64031;SDS011;50278;47.796;11.968;2023-02-15T08:31:14;40.35;;;8.68;;
64031;SDS011;50278;47.796;11.968;2023-02-15T08:33:40;21.52;;;7.35;;
64031;SDS011;50278;47.796;11.968;2023-02-15T08:36:09;29.88;;;8.18;;
64031;SDS011;50278;47.796;11.968;2023-02-15T08:38:36;31.52;;;7.75;;
64031;SDS011;50278;47.796;11.968;2023-02-15T08:41:12;102.30;;;14.93;;
64031;SDS011;50278;47.796;11.968;2023-02-15T08:43:44;29.38;;;6.45;;
64031;SDS011;50278;47.796;11.968;2023-02-15T08:46:11;34.78;;;8.00;;
64031;SDS011;50278;47.796;11.968;2023-02-15T08:48:38;32.78;;;7.43;;
64031;SDS011;50278;47.796;11.968;2023-02-15T08:51:04;19.23;;;7.55;;
64031;SDS011;50278;47.796;11.968;2023-02-15T08:53:36;14.98;;;5.70;;
64031;SDS011;50278;47.796;11.968;2023-02-15T08:56:02;16.73;;;6.53;;
64031;SDS011;50278;47.796;11.968;2023-02-15T08:58:28;11.90;;;6.45;;
64031;SDS011;50278;47.796;11.968;2023-02-15T09:00:55;11.30;;;6.07;;
64031;SDS011;50278;47.796;11.968;2023-02-15T09:03:21;15.25;;;6.43;;
64031;SDS011;50278;47.796;11.968;2023-02-15T09:05:46;13.82;;;6.38;;
64031;SDS011;50278;47.796;11.968;2023-02-15T09:08:12;14.57;;;7.20;;
64031;SDS011;50278;47.796;11.968;2023-02-15T09:10:38;9.52;;;6.55;;
64031;SDS011;50278;47.796;11.968;2023-02-15T09:13:03;8.32;;;5.97;;
64031;SDS011;50278;47.796;11.968;2023-02-15T09:15:29;13.82;;;6.32;;
64031;SDS011;50278;47.796;11.968;2023-02-15T09:17:54;16.88;;;6.22;;
64031;SDS011;50278;47.796;11.968;2023-02-15T09:20:20;9.32;;;5.88;;
64031;SDS011;50278;47.796;11.968;2023-02-15T09:22:45;32.25;;;7.70;;
64031;SDS011;50278;47.796;11.968;2023-02-15T09:25:11;13.82;;;6.15;;
64031;SDS011;50278;47.796;11.968;2023-02-15T09:27:38;16.90;;;6.47;;
64031;SDS011;50278;47.796;11.968;2023-02-15T09:30:05;7.88;;;5.75;;
64031;SDS011;50278;47.796;11.968;2023-02-15T09:32:31;7.60;;;5.15;;
64031;SDS011;50278;47.796;11.968;2023-02-15T09:34:56;7.65;;;5.22;;
64031;SDS011;50278;47.796;11.968;2023-02-15T09:37:22;7.95;;;5.80;;
64031;SDS011;50278;47.796;11.968;2023-02-15T09:39:47;7.53;;;4.97;;
64031;SDS011;50278;47.796;11.968;2023-02-15T09:45:03;8.00;;;5.35;;
64031;SDS011;50278;47.796;11.968;2023-02-15T09:56:53;7.93;;;5.28;;
64031;SDS011;50278;47.796;11.968;2023-02-15T10:13:26;8.35;;;5.40;;
64031;SDS011;50278;47.796;11.968;2023-02-15T10:27:03;7.95;;;4.95;;
64031;SDS011;50278;47.796;11.968;2023-02-15T10:29:39;7.20;;;5.05;;
64031;SDS011;50278;47.796;11.968;2023-02-15T10:32:24;5.80;;;5.07;;
64031;SDS011;50278;47.796;11.968;2023-02-15T10:34:52;7.20;;;4.80;;
64031;SDS011;50278;47.796;11.968;2023-02-15T10:37:48;7.93;;;5.65;;
64031;SDS011;50278;47.796;11.968;2023-02-15T10:40:27;6.50;;;5.15;;
64031;SDS011;50278;47.796;11.968;2023-02-15T10:45:42;6.70;;;5.38;;
64031;SDS011;50278;47.796;11.968;2023-02-15T10:50:55;9.10;;;6.67;;
64031;SDS011;50278;47.796;11.968;2023-02-15T11:07:25;9.93;;;7.25;;
64031;SDS011;50278;47.796;11.968;2023-02-15T11:09:59;8.32;;;6.50;;
64031;SDS011;50278;47.796;11.968;2023-02-15T11:12:43;8.38;;;6.50;;
64031;SDS011;50278;47.796;11.968;2023-02-15T11:18:36;8.50;;;7.38;;
64031;SDS011;50278;47.796;11.968;2023-02-15T11:21:26;12.40;;;6.32;;
64031;SDS011;50278;47.796;11.968;2023-02-15T11:23:57;9.00;;;6.32;;
64031;SDS011;50278;47.796;11.968;2023-02-15T11:26:29;9.15;;;6.28;;
64031;SDS011;50278;47.796;11.968;2023-02-15T11:29:00;7.93;;;6.18;;
64031;SDS011;50278;47.796;11.968;2023-02-15T11:31:46;9.55;;;7.07;;
64031;SDS011;50278;47.796;11.968;2023-02-15T11:34:27;8.13;;;6.28;;
64031;SDS011;50278;47.796;11.968;2023-02-15T11:36:58;8.55;;;6.00;;
64031;SDS011;50278;47.796;11.968;2023-02-15T11:39:35;7.15;;;5.53;;
64031;SDS011;50278;47.796;11.968;2023-02-15T11:42:10;8.23;;;5.78;;
64031;SDS011;50278;47.796;11.968;2023-02-15T11:47:24;7.30;;;5.40;;
64031;SDS011;50278;47.796;11.968;2023-02-15T11:49:50;7.50;;;6.00;;
64031;SDS011;50278;47.796;11.968;2023-02-15T11:52:16;6.57;;;5.93;;
64031;SDS011;50278;47.796;11.968;2023-02-15T11:54:44;6.60;;;5.40;;
64031;SDS011;50278;47.796;11.968;2023-02-15T11:59:50;7.47;;;5.22;;
64031;SDS011;50278;47.796;11.968;2023-02-15T12:02:20;5.95;;;5.18;;
64031;SDS011;50278;47.796;11.968;2023-02-15T12:04:49;7.15;;;5.13;;
64031;SDS011;50278;47.796;11.968;2023-02-15T12:07:25;5.38;;;4.80;;
64031;SDS011;50278;47.796;11.968;2023-02-15T12:10:16;7.82;;;4.97;;
64031;SDS011;50278;47.796;11.968;2023-02-15T12:12:43;5.22;;;4.72;;
64031;SDS011;50278;47.796;11.968;2023-02-15T12:15:10;5.88;;;5.10;;
64031;SDS011;50278;47.796;11.968;2023-02-15T12:17:41;6.72;;;4.72;;
64031;SDS011;50278;47.796;11.968;2023-02-15T12:22:39;5.93;;;4.50;;
64031;SDS011;50278;47.796;11.968;2023-02-15T12:28:05;4.80;;;4.32;;
64031;SDS011;50278;47.796;11.968;2023-02-15T12:30:47;6.10;;;4.53;;
64031;SDS011;50278;47.796;11.968;2023-02-15T12:33:26;10.77;;;4.68;;
64031;SDS011;50278;47.796;11.968;2023-02-15T12:36:21;4.65;;;4.25;;
64031;SDS011;50278;47.796;11.968;2023-02-15T12:39:08;4.30;;;3.90;;
64031;SDS011;50278;47.796;11.968;2023-02-15T12:41:44;3.88;;;3.58;;
64031;SDS011;50278;47.796;11.968;2023-02-15T12:44:22;4.70;;;4.10;;
64031;SDS011;50278;47.796;11.968;2023-02-15T12:47:04;4.30;;;3.90;;
64031;SDS011;50278;47.796;11.968;2023-02-15T12:50:05;5.05;;;4.10;;
64031;SDS011;50278;47.796;11.968;2023-02-15T12:52:31;4.50;;;4.10;;
64031;SDS011;50278;47.796;11.968;2023-02-15T12:55:09;4.68;;;3.60;;
64031;SDS011;50278;47.796;11.968;2023-02-15T12:57:36;4.25;;;3.85;;
64031;SDS011;50278;47.796;11.968;2023-02-15T13:00:45;4.10;;;3.50;;
64031;SDS011;50278;47.796;11.968;2023-02-15T13:02:57;4.15;;;3.60;;
64031;SDS011;50278;47.796;11.968;2023-02-15T13:05:26;3.50;;;3.20;;
64031;SDS011;50278;47.796;11.968;2023-02-15T13:08:11;3.95;;;3.15;;
64031;SDS011;50278;47.796;11.968;2023-02-15T13:10:52;3.90;;;3.50;;
64031;SDS011;50278;47.796;11.968;2023-02-15T13:13:58;3.53;;;3.22;;
64031;SDS011;50278;47.796;11.968;2023-02-15T13:16:33;3.70;;;3.40;;
64031;SDS011;50278;47.796;11.968;2023-02-15T13:19:03;3.70;;;3.40;;
64031;SDS011;50278;47.796;11.968;2023-02-15T13:21:32;3.80;;;3.45;;
64031;SDS011;50278;47.796;11.968;2023-02-15T13:24:17;3.92;;;3.63;;
64031;SDS011;50278;47.796;11.968;2023-02-15T13:26:50;3.80;;;3.47;;
64031;SDS011;50278;47.796;11.968;2023-02-15T13:29:23;4.10;;;3.70;;
64031;SDS011;50278;47.796;11.968;2023-02-15T13:31:51;3.55;;;3.25;;
64031;SDS011;50278;47.796;11.968;2023-02-15T13:34:25;4.10;;;3.80;;
64031;SDS011;50278;47.796;11.968;2023-02-15T13:42:37;4.05;;;3.75;;
64031;SDS011;50278;47.796;11.968;2023-02-15T13:45:09;4.35;;;3.95;;
64031;SDS011;50278;47.796;11.968;2023-02-15T13:50:42;4.00;;;3.60;;
64031;SDS011;50278;47.796;11.968;2023-02-15T13:59:24;13.18;;;4.20;;
64031;SDS011;50278;47.796;11.968;2023-02-15T14:02:23;5.25;;;4.07;;
64031;SDS011;50278;47.796;11.968;2023-02-15T14:05:14;4.32;;;3.92;;
64031;SDS011;50278;47.796;11.968;2023-02-15T14:07:56;5.55;;;4.30;;
64031;SDS011;50278;47.796;11.968;2023-02-15T14:18:44;5.68;;;5.13;;
64031;SDS011;50278;47.796;11.968;2023-02-15T14:26:48;4.50;;;3.55;;
64031;SDS011;50278;47.796;11.968;2023-02-15T14:32:00;4.65;;;3.70;;
64031;SDS011;50278;47.796;11.968;2023-02-15T14:34:40;3.80;;;3.42;;
64031;SDS011;50278;47.796;11.968;2023-02-15T14:37:43;3.78;;;3.47;;
64031;SDS011;50278;47.796;11.968;2023-02-15T14:40:19;13.85;;;4.40;;
64031;SDS011;50278;47.796;11.968;2023-02-15T14:43:30;4.55;;;4.00;;
64031;SDS011;50278;47.796;11.968;2023-02-15T14:46:10;6.23;;;4.50;;
64031;SDS011;50278;47.796;11.968;2023-02-15T14:48:45;6.53;;;5.93;;
64031;SDS011;50278;47.796;11.968;2023-02-15T14:54:11;5.35;;;3.97;;
64031;SDS011;50278;47.796;11.968;2023-02-15T15:02:26;4.20;;;3.90;;
64031;SDS011;50278;47.796;11.968;2023-02-15T15:05:02;5.38;;;4.25;;
64031;SDS011;50278;47.796;11.968;2023-02-15T15:07:46;5.80;;;4.60;;
64031;SDS011;50278;47.796;11.968;2023-02-15T15:25:56;4.82;;;3.70;;
64031;SDS011;50278;47.796;11.968;2023-02-15T15:37:04;4.65;;;3.88;;
64031;SDS011;50278;47.796;11.968;2023-02-15T15:48:37;27.67;;;6.40;;
64031;SDS011;50278;47.796;11.968;2023-02-15T15:51:21;8.45;;;3.67;;
64031;SDS011;50278;47.796;11.968;2023-02-15T15:53:53;6.40;;;4.38;;
64031;SDS011;50278;47.796;11.968;2023-02-15T15:56:21;5.78;;;4.38;;
64031;SDS011;50278;47.796;11.968;2023-02-15T15:58:51;4.82;;;4.03;;
64031;SDS011;50278;47.796;11.968;2023-02-15T16:01:26;5.63;;;4.05;;
64031;SDS011;50278;47.796;11.968;2023-02-15T16:03:53;6.22;;;5.03;;
64031;SDS011;50278;47.796;11.968;2023-02-15T16:06:28;12.15;;;9.70;;
64031;SDS011;50278;47.796;11.968;2023-02-15T16:09:21;8.52;;;5.80;;
64031;SDS011;50278;47.796;11.968;2023-02-15T16:11:58;6.50;;;4.95;;
64031;SDS011;50278;47.796;11.968;2023-02-15T16:14:30;9.70;;;6.03;;
64031;SDS011;50278;47.796;11.968;2023-02-15T16:17:04;11.88;;;6.18;;
64031;SDS011;50278;47.796;11.968;2023-02-15T16:19:41;10.70;;;8.13;;
64031;SDS011;50278;47.796;11.968;2023-02-15T16:22:21;13.10;;;7.50;;
64031;SDS011;50278;47.796;11.968;2023-02-15T16:27:34;16.30;;;8.00;;
64031;SDS011;50278;47.796;11.968;2023-02-15T16:32:47;11.80;;;8.23;;
64031;SDS011;50278;47.796;11.968;2023-02-15T16:35:14;9.38;;;7.05;;
64031;SDS011;50278;47.796;11.968;2023-02-15T16:37:42;12.35;;;9.20;;
64031;SDS011;50278;47.796;11.968;2023-02-15T16:42:49;13.88;;;8.32;;
64031;SDS011;50278;47.796;11.968;2023-02-15T16:45:20;9.88;;;7.25;;
64031;SDS011;50278;47.796;11.968;2023-02-15T16:47:50;9.93;;;6.68;;
64031;SDS011;50278;47.796;11.968;2023-02-15T16:50:22;10.48;;;7.22;;
64031;SDS011;50278;47.796;11.968;2023-02-15T16:55:25;8.25;;;6.55;;
64031;SDS011;50278;47.796;11.968;2023-02-15T16:57:59;9.88;;;6.50;;
64031;SDS011;50278;47.796;11.968;2023-02-15T17:00:30;8.32;;;6.43;;
64031;SDS011;50278;47.796;11.968;2023-02-15T17:03:00;9.80;;;7.20;;
64031;SDS011;50278;47.796;11.968;2023-02-15T17:05:52;9.38;;;6.63;;
64031;SDS011;50278;47.796;11.968;2023-02-15T17:08:18;10.10;;;7.07;;
64031;SDS011;50278;47.796;11.968;2023-02-15T17:13:25;10.82;;;8.63;;
64031;SDS011;50278;47.796;11.968;2023-02-15T17:18:27;9.27;;;6.90;;
64031;SDS011;50278;47.796;11.968;2023-02-15T17:20:56;9.35;;;7.80;;
64031;SDS011;50278;47.796;11.968;2023-02-15T17:23:34;9.82;;;7.68;;
64031;SDS011;50278;47.796;11.968;2023-02-15T17:26:12;10.55;;;7.13;;
64031;SDS011;50278;47.796;11.968;2023-02-15T17:28:50;16.10;;;8.63;;
64031;SDS011;50278;47.796;11.968;2023-02-15T17:31:18;12.13;;;9.48;;
64031;SDS011;50278;47.796;11.968;2023-02-15T17:33:45;11.02;;;8.52;;
64031;SDS011;50278;47.796;11.968;2023-02-15T17:36:12;11.60;;;8.43;;
64031;SDS011;50278;47.796;11.968;2023-02-15T17:43:53;10.18;;;7.13;;
64031;SDS011;50278;47.796;11.968;2023-02-15T17:46:19;12.27;;;7.47;;
64031;SDS011;50278;47.796;11.968;2023-02-15T17:48:49;11.52;;;7.47;;
64031;SDS011;50278;47.796;11.968;2023-02-15T17:51:16;10.82;;;7.28;;
64031;SDS011;50278;47.796;11.968;2023-02-15T17:53:44;10.55;;;7.40;;
64031;SDS011;50278;47.796;11.968;2023-02-15T17:56:30;9.45;;;6.90;;
64031;SDS011;50278;47.796;11.968;2023-02-15T17:59:00;8.88;;;6.57;;
64031;SDS011;50278;47.796;11.968;2023-02-15T18:01:25;9.25;;;6.97;;
64031;SDS011;50278;47.796;11.968;2023-02-15T18:04:10;9.75;;;6.47;;
64031;SDS011;50278;47.796;11.968;2023-02-15T18:06:56;8.27;;;5.30;;
64031;SDS011;50278;47.796;11.968;2023-02-15T18:09:40;7.20;;;5.28;;
64031;SDS011;50278;47.796;11.968;2023-02-15T18:12:28;7.07;;;4.57;;
64031;SDS011;50278;47.796;11.968;2023-02-15T18:14:55;7.45;;;5.05;;
64031;SDS011;50278;47.796;11.968;2023-02-15T18:17:29;6.53;;;4.82;;
64031;SDS011;50278;47.796;11.968;2023-02-15T18:19:58;9.27;;;5.90;;
64031;SDS011;50278;47.796;11.968;2023-02-15T18:22:26;6.45;;;4.55;;